Time,TemperatureF,DewpointF,PressureIn,WindDirection,WindDirectionDegrees,WindSpeedMPH,WindSpeedGustMPH,Humidity,HourlyPrecipIn,Conditions,Clouds,dailyrainin,SolarRadiationWatts/m^2,SoftwareType,DateUTC
2013-06-02 00:01:00,55.1,33.0,29.99,SSE,148,0.0,0.0,43,0.00,FEW,FEW,0.00,0.0,WeatherDisplay:10.37,2013-06-02 06:01:00,
2013-06-02 00:06:00,55.0,32.9,29.98,SSE,148,0.0,0.0,43,0.00,FEW,FEW,0.00,0.0,WeatherDisplay:10.37,2013-06-02 06:06:00,
2013-06-02 00:11:00,54.8,33.3,29.97,SSE,148,0.0,0.0,44,0.00,FEW,FEW,0.00,0.0,WeatherDisplay:10.37,2013-06-02 06:11:00,
2013-06-02 00:16:00,54.6,33.7,29.97,SSE,148,0.0,0.0,45,0.00,FEW,FEW,0.00,0.0,WeatherDisplay:10.37,2013-06-02 06:16:00,
2013-06-02 00:21:00,54.3,33.4,29.98,SSE,148,0.0,0.0,45,0.00,FEW,FEW,0.00,0.0,WeatherDisplay:10.37,2013-06-02 06:21:00,
2013-06-02 00:26:00,54.0,33.1,29.98,SSE,148,0.0,1.1,45,0.00,FEW,FEW,0.00,0.0,WeatherDisplay:10.37,2013-06-02 06:26:00,
2013-06-02 00:31:00,53.7,33.4,29.98,SSE,148,0.0,1.1,46,0.00,FEW,FEW,0.00,0.0,WeatherDisplay:10.37,2013-06-02 06:31:00,
2013-06-02 00:36:00,53.4,33.1,29.98,SSE,148,0.0,0.0,46,0.00,FEW,FEW,0.00,0.0,WeatherDisplay:10.37,2013-06-02 06:36:00,
2013-06-02 00:41:00,53.1,33.4,29.98,SSE,148,0.8,1.1,47,0.00,FEW,FEW,0.00,0.0,WeatherDisplay:10.37,2013-06-02 06:41:00,
2013-06-02 00:46:00,52.8,33.6,29.97,SSE,148,0.1,0.0,48,0.00,FEW,FEW,0.00,0.0,WeatherDisplay:10.37,2013-06-02 06:46:00,
2013-06-02 00:51:00,52.5,33.4,29.97,SSE,148,0.5,1.1,48,0.00,FEW,FEW,0.00,0.0,WeatherDisplay:10.37,2013-06-02 06:51:00,
2013-06-02 00:56:00,52.4,33.8,29.98,SSE,148,0.0,0.0,49,0.00,FEW,FEW,0.00,0.0,WeatherDisplay:10.37,2013-06-02 06:56:00,
2013-06-02 01:01:00,52.2,33.6,29.98,SSE,148,0.0,0.0,49,0.00,CLR,CLR,0.00,0.0,WeatherDisplay:10.37,2013-06-02 07:01:00,
2013-06-02 01:06:00,51.9,33.3,29.97,SSE,148,0.0,0.0,49,0.00,CLR,CLR,0.00,0.0,WeatherDisplay:10.37,2013-06-02 07:06:00,
2013-06-02 01:11:00,51.7,33.6,29.97,SSE,148,0.0,0.0,50,0.00,CLR,CLR,0.00,0.0,WeatherDisplay:10.37,2013-06-02 07:11:00,
2013-06-02 01:16:00,51.5,33.5,29.97,SSE,148,0.0,0.0,50,0.00,CLR,CLR,0.00,0.0,WeatherDisplay:10.37,2013-06-02 07:16:00,
2013-06-02 01:21:00,51.4,34.3,29.97,SSE,148,1.3,3.4,52,0.00,CLR,CLR,0.00,0.0,WeatherDisplay:10.37,2013-06-02 07:21:00,
2013-06-02 01:26:00,51.3,34.3,29.97,SSE,148,0.1,2.3,52,0.00,CLR,CLR,0.00,0.0,WeatherDisplay:10.37,2013-06-02 07:26:00,
2013-06-02 01:31:00,51.2,34.6,29.97,SSE,148,0.0,1.1,53,0.00,CLR,CLR,0.00,0.0,WeatherDisplay:10.37,2013-06-02 07:31:00,
2013-06-02 01:36:00,51.0,34.5,29.97,SSE,148,1.7,4.6,53,0.00,CLR,CLR,0.00,0.0,WeatherDisplay:10.37,2013-06-02 07:36:00,
2013-06-02 01:41:00,51.0,34.5,29.96,SSE,148,2.0,4.6,53,0.00,CLR,CLR,0.00,0.0,WeatherDisplay:10.37,2013-06-02 07:41:00,
2013-06-02 01:46:00,50.9,34.4,29.96,SSE,148,0.1,4.0,53,0.00,CLR,CLR,0.00,0.0,WeatherDisplay:10.37,2013-06-02 07:46:00,
2013-06-02 01:51:00,50.8,33.8,29.96,SSE,148,1.4,3.4,52,0.00,CLR,CLR,0.00,0.0,WeatherDisplay:10.37,2013-06-02 07:51:00,
2013-06-02 01:56:00,50.8,34.3,29.96,SSE,148,0.8,3.4,53,0.00,CLR,CLR,0.00,0.0,WeatherDisplay:10.37,2013-06-02 07:56:00,
2013-06-02 02:01:00,50.6,34.1,29.96,SSE,148,0.0,3.4,53,0.00,CLR,CLR,0.00,0.0,WeatherDisplay:10.37,2013-06-02 08:01:00,
2013-06-02 02:06:00,50.5,34.0,29.96,SSE,148,1.1,1.1,53,0.00,CLR,CLR,0.00,0.0,WeatherDisplay:10.37,2013-06-02 08:06:00,
2013-06-02 02:11:00,50.4,34.4,29.96,SSE,148,2.5,3.4,54,0.00,CLR,CLR,0.00,0.0,WeatherDisplay:10.37,2013-06-02 08:11:00,
2013-06-02 02:16:00,50.3,34.3,29.95,SSE,148,0.0,1.1,54,0.00,CLR,CLR,0.00,0.0,WeatherDisplay:10.37,2013-06-02 08:16:00,
2013-06-02 02:21:00,50.1,34.1,29.95,SSE,148,1.5,2.3,54,0.00,CLR,CLR,0.00,0.0,WeatherDisplay:10.37,2013-06-02 08:21:00,
2013-06-02 02:26:00,50.0,34.0,29.95,SSE,148,0.8,2.3,54,0.00,CLR,CLR,0.00,0.0,WeatherDisplay:10.37,2013-06-02 08:26:00,
2013-06-02 02:31:00,49.8,33.8,29.95,SSE,148,0.8,2.3,54,0.00,CLR,CLR,0.00,0.0,WeatherDisplay:10.37,2013-06-02 08:31:00,
2013-06-02 02:36:00,49.7,33.7,29.94,SSE,148,0.6,2.3,54,0.00,CLR,CLR,0.00,0.0,WeatherDisplay:10.37,2013-06-02 08:36:00,
2013-06-02 02:41:00,49.6,34.1,29.95,SSE,148,0.0,0.0,55,0.00,CLR,CLR,0.00,0.0,WeatherDisplay:10.37,2013-06-02 08:41:00,
2013-06-02 02:46:00,49.5,34.0,29.94,SSE,148,0.2,1.0,55,0.00,CLR,CLR,0.00,0.0,WeatherDisplay:10.37,2013-06-02 08:46:00,
2013-06-02 02:51:00,49.3,34.3,29.95,SSE,148,0.0,0.0,56,0.00,CLR,CLR,0.00,0.0,WeatherDisplay:10.37,2013-06-02 08:51:00,
2013-06-02 02:56:00,49.2,34.2,29.95,SSE,148,0.0,0.0,56,0.00,CLR,CLR,0.00,0.0,WeatherDisplay:10.37,2013-06-02 08:56:00,
2013-06-02 03:01:00,49.0,34.9,29.95,SSE,148,0.6,3.4,58,0.00,FEW,FEW,0.00,0.0,WeatherDisplay:10.37,2013-06-02 09:01:00,
2013-06-02 03:06:00,48.8,35.1,29.94,SSE,149,0.8,3.4,59,0.00,FEW,FEW,0.00,0.0,WeatherDisplay:10.37,2013-06-02 09:06:00,
2013-06-02 03:11:00,48.7,35.0,29.94,SSE,149,0.0,0.0,59,0.00,FEW,FEW,0.00,0.0,WeatherDisplay:10.37,2013-06-02 09:11:00,
2013-06-02 03:16:00,48.6,35.3,29.94,SSE,149,0.6,2.3,60,0.00,FEW,FEW,0.00,0.0,WeatherDisplay:10.37,2013-06-02 09:16:00,
2013-06-02 03:21:00,48.5,35.2,29.94,SSE,149,0.1,1.1,60,0.00,FEW,FEW,0.00,0.0,WeatherDisplay:10.37,2013-06-02 09:21:00,
2013-06-02 03:26:00,48.5,35.2,29.94,SSE,149,0.0,0.0,60,0.00,FEW,FEW,0.00,0.0,WeatherDisplay:10.37,2013-06-02 09:26:00,
2013-06-02 03:31:00,48.4,35.6,29.95,SSE,149,0.2,3.4,61,0.00,FEW,FEW,0.00,0.0,WeatherDisplay:10.37,2013-06-02 09:31:00,
2013-06-02 03:36:00,48.3,35.5,29.95,SSE,149,0.4,2.0,61,0.00,FEW,FEW,0.00,0.0,WeatherDisplay:10.37,2013-06-02 09:36:00,
2013-06-02 03:41:00,48.3,35.9,29.95,SSE,149,0.0,1.1,62,0.00,FEW,FEW,0.00,0.0,WeatherDisplay:10.37,2013-06-02 09:41:00,
2013-06-02 03:46:00,48.2,35.8,29.95,SSE,149,2.3,3.4,62,0.00,FEW,FEW,0.00,0.0,WeatherDisplay:10.37,2013-06-02 09:46:00,
2013-06-02 03:51:00,48.2,35.8,29.94,SSE,149,0.0,0.0,62,0.00,FEW,FEW,0.00,0.0,WeatherDisplay:10.37,2013-06-02 09:51:00,
2013-06-02 03:56:00,48.1,36.1,29.94,SSE,149,0.0,0.0,63,0.00,FEW,FEW,0.00,0.0,WeatherDisplay:10.37,2013-06-02 09:56:00,
2013-06-02 04:01:00,48.0,36.4,29.94,SSE,149,0.0,0.0,64,0.00,CLR,CLR,0.00,0.0,WeatherDisplay:10.37,2013-06-02 10:01:00,
2013-06-02 04:06:00,47.9,36.3,29.93,SSE,149,0.7,2.3,64,0.00,CLR,CLR,0.00,0.0,WeatherDisplay:10.37,2013-06-02 10:06:00,
2013-06-02 04:11:00,47.8,36.2,29.93,SSE,149,0.0,0.0,64,0.00,CLR,CLR,0.00,0.0,WeatherDisplay:10.37,2013-06-02 10:11:00,
2013-06-02 04:16:00,47.8,36.2,29.93,SSE,149,0.0,0.0,64,0.00,CLR,CLR,0.00,0.0,WeatherDisplay:10.37,2013-06-02 10:16:00,
2013-06-02 04:21:00,47.7,36.1,29.93,SSE,149,0.0,0.0,64,0.00,CLR,CLR,0.00,0.0,WeatherDisplay:10.37,2013-06-02 10:21:00,
2013-06-02 04:26:00,47.5,35.9,29.93,SSE,149,0.0,0.0,64,0.00,CLR,CLR,0.00,0.0,WeatherDisplay:10.37,2013-06-02 10:26:00,
2013-06-02 04:31:00,47.3,36.1,29.94,SSE,149,0.0,0.0,65,0.00,CLR,CLR,0.00,0.0,WeatherDisplay:10.37,2013-06-02 10:31:00,
2013-06-02 04:36:00,47.1,35.9,29.93,SSE,149,0.0,2.3,65,0.00,CLR,CLR,0.00,0.0,WeatherDisplay:10.37,2013-06-02 10:36:00,
2013-06-02 04:41:00,46.9,36.1,29.93,SSE,149,0.0,0.0,66,0.00,CLR,CLR,0.00,0.0,WeatherDisplay:10.37,2013-06-02 10:41:00,
2013-06-02 04:46:00,46.7,35.9,29.93,SSE,149,0.6,2.3,66,0.00,CLR,CLR,0.00,0.0,WeatherDisplay:10.37,2013-06-02 10:46:00,
2013-06-02 04:51:00,46.6,36.2,29.93,SSE,149,0.7,2.3,67,0.00,CLR,CLR,0.00,0.0,WeatherDisplay:10.37,2013-06-02 10:51:00,
2013-06-02 04:56:00,46.5,36.1,29.93,SSE,149,0.0,1.1,67,0.00,CLR,CLR,0.00,0.0,WeatherDisplay:10.37,2013-06-02 10:56:00,
2013-06-02 05:01:00,46.4,36.0,29.93,SSE,149,0.0,0.0,67,0.00,FEW,FEW,0.00,0.0,WeatherDisplay:10.37,2013-06-02 11:01:00,
2013-06-02 05:06:00,46.3,36.3,29.93,SSE,149,0.0,0.0,68,0.00,FEW,FEW,0.00,0.0,WeatherDisplay:10.37,2013-06-02 11:06:00,
2013-06-02 05:11:00,46.2,36.2,29.93,SSE,149,0.0,0.0,68,0.00,FEW,FEW,0.00,0.0,WeatherDisplay:10.37,2013-06-02 11:11:00,
2013-06-02 05:16:00,46.1,36.1,29.92,SSE,149,0.9,3.4,68,0.00,FEW,FEW,0.00,0.0,WeatherDisplay:10.37,2013-06-02 11:16:00,
2013-06-02 05:21:00,46.0,36.0,29.92,SSE,149,0.0,0.0,68,0.00,FEW,FEW,0.00,0.0,WeatherDisplay:10.37,2013-06-02 11:21:00,
2013-06-02 05:26:00,45.9,36.3,29.92,SSE,149,0.0,1.1,69,0.00,FEW,FEW,0.00,0.0,WeatherDisplay:10.37,2013-06-02 11:26:00,
2013-06-02 05:31:00,45.8,36.2,29.92,SSE,149,0.2,2.0,69,0.00,FEW,FEW,0.00,0.0,WeatherDisplay:10.37,2013-06-02 11:31:00,
2013-06-02 05:36:00,45.6,36.0,29.92,SSE,149,0.3,3.4,69,0.00,FEW,FEW,0.00,5.0,WeatherDisplay:10.37,2013-06-02 11:36:00,
2013-06-02 05:41:00,45.6,36.0,29.92,SSE,149,0.0,0.0,69,0.00,FEW,FEW,0.00,9.0,WeatherDisplay:10.37,2013-06-02 11:41:00,
2013-06-02 05:46:00,45.6,36.0,29.92,SSE,149,1.3,3.4,69,0.00,FEW,FEW,0.00,11.0,WeatherDisplay:10.37,2013-06-02 11:46:00,
2013-06-02 05:51:00,45.6,36.4,29.92,SSE,150,0.0,0.0,70,0.00,FEW,FEW,0.00,12.0,WeatherDisplay:10.37,2013-06-02 11:51:00,
2013-06-02 05:56:00,45.6,36.4,29.92,SSE,150,0.0,0.0,70,0.00,FEW,FEW,0.00,16.0,WeatherDisplay:10.37,2013-06-02 11:56:00,
2013-06-02 06:01:00,45.6,36.4,29.92,SSE,150,0.0,0.0,70,0.00,SCT,SCT,0.00,18.0,WeatherDisplay:10.37,2013-06-02 12:01:00,
2013-06-02 06:06:00,45.6,36.4,29.93,SSE,150,0.0,1.1,70,0.00,SCT,SCT,0.00,21.0,WeatherDisplay:10.37,2013-06-02 12:06:00,
2013-06-02 06:11:00,45.6,36.4,29.93,SSE,149,0.1,2.3,70,0.00,SCT,SCT,0.00,21.0,WeatherDisplay:10.37,2013-06-02 12:11:00,
2013-06-02 06:16:00,45.6,36.4,29.93,SSE,151,1.3,4.6,70,0.00,SCT,SCT,0.00,25.0,WeatherDisplay:10.37,2013-06-02 12:16:00,
2013-06-02 06:21:00,45.6,36.4,29.93,SSE,154,0.0,3.4,70,0.00,SCT,SCT,0.00,26.0,WeatherDisplay:10.37,2013-06-02 12:21:00,
2013-06-02 06:26:00,45.7,36.5,29.93,SSE,154,2.0,3.4,70,0.00,SCT,SCT,0.00,100.0,WeatherDisplay:10.37,2013-06-02 12:26:00,
2013-06-02 06:31:00,45.8,36.6,29.93,SSE,153,0.1,2.0,70,0.00,SCT,SCT,0.00,146.0,WeatherDisplay:10.37,2013-06-02 12:31:00,
2013-06-02 06:36:00,45.9,36.3,29.93,SSE,154,0.1,0.0,69,0.00,SCT,SCT,0.00,162.0,WeatherDisplay:10.37,2013-06-02 12:36:00,
2013-06-02 06:41:00,46.0,36.4,29.93,SSE,155,0.0,0.0,69,0.00,SCT,SCT,0.00,176.0,WeatherDisplay:10.37,2013-06-02 12:41:00,
2013-06-02 06:46:00,46.2,36.6,29.93,SSE,155,0.0,0.0,69,0.00,SCT,SCT,0.00,190.0,WeatherDisplay:10.37,2013-06-02 12:46:00,
2013-06-02 06:51:00,46.4,36.8,29.92,SSE,154,0.0,0.0,69,0.00,SCT,SCT,0.00,206.0,WeatherDisplay:10.37,2013-06-02 12:51:00,
2013-06-02 06:56:00,46.7,37.1,29.92,SSE,155,0.0,2.3,69,0.00,SCT,SCT,0.00,221.0,WeatherDisplay:10.37,2013-06-02 12:56:00,
2013-06-02 07:01:00,47.1,37.4,29.92,SSE,155,0.0,0.0,69,0.00,SCT,SCT,0.00,237.0,WeatherDisplay:10.37,2013-06-02 13:01:00,
2013-06-02 07:06:00,47.5,37.5,29.93,SSE,154,0.0,0.0,68,0.00,SCT,SCT,0.00,253.0,WeatherDisplay:10.37,2013-06-02 13:06:00,
2013-06-02 07:11:00,47.9,37.8,29.93,SSE,154,0.8,1.1,68,0.00,SCT,SCT,0.00,271.0,WeatherDisplay:10.37,2013-06-02 13:11:00,
2013-06-02 07:16:00,48.4,37.9,29.93,SSE,155,0.6,0.0,67,0.00,SCT,SCT,0.00,288.0,WeatherDisplay:10.37,2013-06-02 13:16:00,
2013-06-02 07:21:00,48.9,38.0,29.92,SSE,155,1.0,1.1,66,0.00,SCT,SCT,0.00,299.0,WeatherDisplay:10.37,2013-06-02 13:21:00,
2013-06-02 07:26:00,49.4,38.1,29.92,SSE,155,0.3,2.0,65,0.00,SCT,SCT,0.00,320.0,WeatherDisplay:10.37,2013-06-02 13:26:00,
2013-06-02 07:31:00,50.0,38.3,29.92,SSE,155,0.1,2.0,64,0.00,SCT,SCT,0.00,334.0,WeatherDisplay:10.37,2013-06-02 13:31:00,
2013-06-02 07:36:00,50.5,38.0,29.91,SSE,165,0.0,1.1,62,0.00,SCT,SCT,0.00,357.0,WeatherDisplay:10.37,2013-06-02 13:36:00,
2013-06-02 07:41:00,51.0,38.0,29.91,SSE,165,0.0,1.1,61,0.00,SCT,SCT,0.00,369.0,WeatherDisplay:10.37,2013-06-02 13:41:00,
2013-06-02 07:46:00,51.5,37.6,29.91,SSE,167,0.6,2.3,59,0.00,SCT,SCT,0.00,387.0,WeatherDisplay:10.37,2013-06-02 13:46:00,
2013-06-02 07:51:00,51.9,37.6,29.91,SSE,167,0.0,0.0,58,0.00,SCT,SCT,0.00,404.0,WeatherDisplay:10.37,2013-06-02 13:51:00,
2013-06-02 07:56:00,52.4,37.6,29.91,SSE,166,0.0,0.0,57,0.00,SCT,SCT,0.00,422.0,WeatherDisplay:10.37,2013-06-02 13:56:00,
2013-06-02 08:01:00,53.1,37.8,29.89,SSE,165,1.5,3.4,56,0.00,SCT,SCT,0.00,439.0,WeatherDisplay:10.37,2013-06-02 14:01:00,
2013-06-02 08:06:00,53.8,38.0,29.90,SSE,165,0.0,1.0,55,0.00,SCT,SCT,0.00,457.0,WeatherDisplay:10.37,2013-06-02 14:06:00,
2013-06-02 08:11:00,54.7,38.4,29.90,SSE,166,0.6,2.3,54,0.00,SCT,SCT,0.00,473.0,WeatherDisplay:10.37,2013-06-02 14:11:00,
2013-06-02 08:16:00,55.5,37.1,29.89,SSE,165,0.4,2.0,50,0.00,SCT,SCT,0.00,494.0,WeatherDisplay:10.37,2013-06-02 14:16:00,
2013-06-02 08:21:00,56.2,36.8,29.89,SSE,166,0.0,0.0,48,0.00,SCT,SCT,0.00,510.0,WeatherDisplay:10.37,2013-06-02 14:21:00,
2013-06-02 08:26:00,56.9,36.9,29.89,SSE,166,0.0,2.3,47,0.00,SCT,SCT,0.00,527.0,WeatherDisplay:10.37,2013-06-02 14:26:00,
2013-06-02 08:31:00,57.7,37.6,29.87,SSE,166,0.1,1.0,47,0.00,SCT,SCT,0.00,541.0,WeatherDisplay:10.37,2013-06-02 14:31:00,
2013-06-02 08:36:00,58.4,37.7,29.87,SSE,165,0.0,2.3,46,0.00,SCT,SCT,0.00,563.0,WeatherDisplay:10.37,2013-06-02 14:36:00,
2013-06-02 08:41:00,59.0,38.2,29.87,NE,40,1.8,4.6,46,0.00,SCT,SCT,0.00,577.0,WeatherDisplay:10.37,2013-06-02 14:41:00,
2013-06-02 08:46:00,59.4,38.0,29.87,NE,50,2.2,3.4,45,0.00,SCT,SCT,0.00,594.0,WeatherDisplay:10.37,2013-06-02 14:46:00,
2013-06-02 08:51:00,59.7,37.7,29.85,NE,50,0.9,3.4,44,0.00,SCT,SCT,0.00,608.0,WeatherDisplay:10.37,2013-06-02 14:51:00,
2013-06-02 08:56:00,59.9,38.5,29.85,NNE,18,0.1,1.1,45,0.00,SCT,SCT,0.00,621.0,WeatherDisplay:10.37,2013-06-02 14:56:00,
2013-06-02 09:01:00,60.2,38.2,29.85,NNE,17,1.1,3.4,44,0.00,SCT,SCT,0.00,636.0,WeatherDisplay:10.37,2013-06-02 15:01:00,
2013-06-02 09:06:00,60.8,38.1,29.86,NNE,17,0.0,1.1,43,0.00,SCT,SCT,0.00,652.0,WeatherDisplay:10.37,2013-06-02 15:06:00,
2013-06-02 09:11:00,61.3,38.6,29.86,NNE,24,0.7,2.3,43,0.00,SCT,SCT,0.00,671.0,WeatherDisplay:10.37,2013-06-02 15:11:00,
2013-06-02 09:16:00,61.8,38.4,29.84,NNE,31,0.2,1.1,42,0.00,SCT,SCT,0.00,686.0,WeatherDisplay:10.37,2013-06-02 15:16:00,
2013-06-02 09:21:00,61.9,37.9,29.84,East,84,0.2,2.3,41,0.00,SCT,SCT,0.00,700.0,WeatherDisplay:10.37,2013-06-02 15:21:00,
2013-06-02 09:26:00,61.9,38.5,29.84,East,84,0.8,3.4,42,0.00,SCT,SCT,0.00,714.0,WeatherDisplay:10.37,2013-06-02 15:26:00,
2013-06-02 09:31:00,62.4,39.6,29.84,East,84,0.3,2.3,43,0.00,SCT,SCT,0.00,724.0,WeatherDisplay:10.37,2013-06-02 15:31:00,
2013-06-02 09:36:00,62.8,38.7,29.84,East,84,0.0,1.1,41,0.00,SCT,SCT,0.00,742.0,WeatherDisplay:10.37,2013-06-02 15:36:00,
2013-06-02 09:41:00,63.1,38.4,29.83,East,83,0.0,2.3,40,0.00,SCT,SCT,0.00,756.0,WeatherDisplay:10.37,2013-06-02 15:41:00,
2013-06-02 09:46:00,63.3,39.2,29.83,ESE,118,0.9,3.0,41,0.00,SCT,SCT,0.00,772.0,WeatherDisplay:10.37,2013-06-02 15:46:00,
2013-06-02 09:51:00,64.1,39.3,29.82,SW,217,3.1,4.6,40,0.00,SCT,SCT,0.00,786.0,WeatherDisplay:10.37,2013-06-02 15:51:00,
2013-06-02 09:56:00,64.1,38.6,29.82,SSW,194,1.7,4.0,39,0.00,SCT,SCT,0.00,798.0,WeatherDisplay:10.37,2013-06-02 15:56:00,
2013-06-02 10:01:00,64.4,38.9,29.81,South,169,0.9,3.4,39,0.00,SCT,SCT,0.00,812.0,WeatherDisplay:10.37,2013-06-02 16:01:00,
2013-06-02 10:06:00,65.0,39.4,29.82,South,187,0.0,3.4,39,0.00,SCT,SCT,0.00,823.0,WeatherDisplay:10.37,2013-06-02 16:06:00,
2013-06-02 10:11:00,65.3,38.3,29.82,South,186,0.0,1.1,37,0.00,SCT,SCT,0.00,837.0,WeatherDisplay:10.37,2013-06-02 16:11:00,
2013-06-02 10:16:00,65.3,39.0,29.81,South,186,0.0,0.0,38,0.00,SCT,SCT,0.00,851.0,WeatherDisplay:10.37,2013-06-02 16:16:00,
2013-06-02 10:21:00,65.7,39.4,29.81,South,188,0.3,3.4,38,0.00,SCT,SCT,0.00,861.0,WeatherDisplay:10.37,2013-06-02 16:21:00,
2013-06-02 10:26:00,66.3,39.2,29.81,South,186,2.1,3.4,37,0.00,SCT,SCT,0.00,872.0,WeatherDisplay:10.37,2013-06-02 16:26:00,
2013-06-02 10:31:00,66.5,40.8,29.80,South,186,0.1,1.1,39,0.00,SCT,SCT,0.00,882.0,WeatherDisplay:10.37,2013-06-02 16:31:00,
2013-06-02 10:36:00,67.5,40.3,29.79,SSE,163,1.6,4.0,37,0.00,SCT,SCT,0.00,895.0,WeatherDisplay:10.37,2013-06-02 16:36:00,
2013-06-02 10:41:00,68.3,40.3,29.79,SSE,162,3.0,4.0,36,0.00,SCT,SCT,0.00,902.0,WeatherDisplay:10.37,2013-06-02 16:41:00,
2013-06-02 10:46:00,69.2,40.4,29.77,SSE,161,0.9,3.4,35,0.00,SCT,SCT,0.00,912.0,WeatherDisplay:10.37,2013-06-02 16:46:00,
2013-06-02 10:51:00,69.5,40.6,29.77,SW,231,1.4,5.8,35,0.00,SCT,SCT,0.00,925.0,WeatherDisplay:10.37,2013-06-02 16:51:00,
2013-06-02 10:56:00,69.3,40.5,29.78,SW,217,2.8,4.0,35,0.00,SCT,SCT,0.00,932.0,WeatherDisplay:10.37,2013-06-02 16:56:00,
2013-06-02 11:01:00,69.3,40.5,29.77,SSW,207,0.6,2.3,35,0.00,SCT,SCT,0.00,940.0,WeatherDisplay:10.37,2013-06-02 17:01:00,
2013-06-02 11:06:00,70.1,40.4,29.78,SSW,200,2.9,4.6,34,0.00,SCT,SCT,0.00,951.0,WeatherDisplay:10.37,2013-06-02 17:06:00,
2013-06-02 11:11:00,70.3,40.6,29.78,South,175,0.2,3.0,34,0.00,SCT,SCT,0.00,956.0,WeatherDisplay:10.37,2013-06-02 17:11:00,
2013-06-02 11:16:00,70.8,41.0,29.76,South,183,1.7,3.4,34,0.00,SCT,SCT,0.00,967.0,WeatherDisplay:10.37,2013-06-02 17:16:00,
2013-06-02 11:21:00,70.6,40.1,29.76,SW,217,0.3,2.0,33,0.00,SCT,SCT,0.00,974.0,WeatherDisplay:10.37,2013-06-02 17:21:00,
2013-06-02 11:26:00,70.5,40.8,29.75,South,189,0.0,3.4,34,0.00,SCT,SCT,0.00,983.0,WeatherDisplay:10.37,2013-06-02 17:26:00,
2013-06-02 11:31:00,71.5,40.9,29.75,SE,144,1.1,8.1,33,0.00,SCT,SCT,0.00,988.0,WeatherDisplay:10.37,2013-06-02 17:31:00,
2013-06-02 11:36:00,71.9,42.0,29.75,SSW,196,0.6,3.4,34,0.00,SCT,SCT,0.00,995.0,WeatherDisplay:10.37,2013-06-02 17:36:00,
2013-06-02 11:41:00,72.0,42.1,29.75,SSW,196,0.6,2.3,34,0.00,SCT,SCT,0.00,1000.0,WeatherDisplay:10.37,2013-06-02 17:41:00,
2013-06-02 11:46:00,72.6,41.8,29.73,SE,145,0.1,3.4,33,0.00,SCT,SCT,0.00,1004.0,WeatherDisplay:10.37,2013-06-02 17:46:00,
2013-06-02 11:51:00,73.1,41.5,29.73,SE,142,1.5,6.0,32,0.00,SCT,SCT,0.00,1013.0,WeatherDisplay:10.37,2013-06-02 17:51:00,
2013-06-02 11:56:00,73.8,41.3,29.73,SSE,148,1.4,4.6,31,0.00,SCT,SCT,0.00,1016.0,WeatherDisplay:10.37,2013-06-02 17:56:00,
2013-06-02 12:01:00,73.7,42.0,29.72,SW,226,2.9,5.0,32,0.00,SCT,SCT,0.00,1021.0,WeatherDisplay:10.37,2013-06-02 18:01:00,
2013-06-02 12:06:00,74.3,41.7,29.73,SSE,158,3.6,8.1,31,0.00,SCT,SCT,0.00,1025.0,WeatherDisplay:10.37,2013-06-02 18:06:00,
2013-06-02 12:11:00,75.1,43.2,29.73,SE,126,0.8,3.4,32,0.00,SCT,SCT,0.00,1030.0,WeatherDisplay:10.37,2013-06-02 18:11:00,
2013-06-02 12:16:00,75.4,41.8,29.73,SE,126,0.1,3.4,30,0.00,SCT,SCT,0.00,1034.0,WeatherDisplay:10.37,2013-06-02 18:16:00,
2013-06-02 12:21:00,75.7,43.7,29.71,SE,132,0.6,2.3,32,0.00,SCT,SCT,0.00,1041.0,WeatherDisplay:10.37,2013-06-02 18:21:00,
2013-06-02 12:26:00,76.4,42.7,29.71,East,95,0.9,3.4,30,0.00,SCT,SCT,0.00,1041.0,WeatherDisplay:10.37,2013-06-02 18:26:00,
2013-06-02 12:31:00,76.5,41.0,29.71,ESE,107,0.3,3.4,28,0.00,SCT,SCT,0.00,1046.0,WeatherDisplay:10.37,2013-06-02 18:31:00,
2013-06-02 12:36:00,76.9,40.4,29.71,ESE,119,3.0,4.6,27,0.00,SCT,SCT,0.00,1046.0,WeatherDisplay:10.37,2013-06-02 18:36:00,
2013-06-02 12:41:00,76.8,41.2,29.71,South,184,2.5,4.6,28,0.00,SCT,SCT,0.00,1044.0,WeatherDisplay:10.37,2013-06-02 18:41:00,
2013-06-02 12:46:00,77.2,40.6,29.71,South,174,0.6,4.6,27,0.00,SCT,SCT,0.00,1044.0,WeatherDisplay:10.37,2013-06-02 18:46:00,
2013-06-02 12:51:00,77.2,41.6,29.70,SSE,163,0.2,3.4,28,0.00,SCT,SCT,0.00,1044.0,WeatherDisplay:10.37,2013-06-02 18:51:00,
2013-06-02 12:56:00,77.4,39.8,29.70,SSE,155,0.1,1.1,26,0.00,SCT,SCT,0.00,1042.0,WeatherDisplay:10.37,2013-06-02 18:56:00,
2013-06-02 13:01:00,77.6,41.0,29.68,ESE,109,1.5,4.6,27,0.00,SCT,SCT,0.00,1044.0,WeatherDisplay:10.37,2013-06-02 19:01:00,
2013-06-02 13:06:00,78.5,41.7,29.68,ESE,114,3.4,7.0,27,0.00,SCT,SCT,0.00,1044.0,WeatherDisplay:10.37,2013-06-02 19:06:00,
2013-06-02 13:11:00,78.5,40.7,29.68,South,174,4.2,6.9,26,0.00,SCT,SCT,0.00,1046.0,WeatherDisplay:10.37,2013-06-02 19:11:00,
2013-06-02 13:16:00,78.7,40.9,29.68,South,169,2.5,4.6,26,0.00,SCT,SCT,0.00,1042.0,WeatherDisplay:10.37,2013-06-02 19:16:00,
2013-06-02 13:21:00,78.9,41.1,29.67,SW,217,3.3,5.8,26,0.00,SCT,SCT,0.00,1042.0,WeatherDisplay:10.37,2013-06-02 19:21:00,
2013-06-02 13:26:00,78.7,40.9,29.67,SSW,196,3.7,4.6,26,0.00,SCT,SCT,0.00,1037.0,WeatherDisplay:10.37,2013-06-02 19:26:00,
2013-06-02 13:31:00,78.7,39.9,29.67,SSE,148,5.0,5.0,25,0.00,SCT,SCT,0.00,1034.0,WeatherDisplay:10.37,2013-06-02 19:31:00,
2013-06-02 13:36:00,79.1,39.2,29.67,SE,144,0.3,1.1,24,0.00,SCT,SCT,0.00,1034.0,WeatherDisplay:10.37,2013-06-02 19:36:00,
2013-06-02 13:41:00,81.1,39.8,29.66,SSE,160,0.6,3.0,23,0.00,SCT,SCT,0.00,1032.0,WeatherDisplay:10.37,2013-06-02 19:41:00,
2013-06-02 13:46:00,81.1,38.6,29.66,South,175,1.2,3.4,22,0.00,SCT,SCT,0.00,1028.0,WeatherDisplay:10.37,2013-06-02 19:46:00,
2013-06-02 13:51:00,81.2,37.5,29.65,ENE,78,2.2,4.6,21,0.00,SCT,SCT,0.00,1025.0,WeatherDisplay:10.37,2013-06-02 19:51:00,
2013-06-02 13:56:00,81.3,37.6,29.65,NE,36,3.8,5.8,21,0.00,SCT,SCT,0.00,1021.0,WeatherDisplay:10.37,2013-06-02 19:56:00,
2013-06-02 14:01:00,81.4,38.9,29.65,SE,126,1.6,2.3,22,0.00,SCT,SCT,0.00,1013.0,WeatherDisplay:10.37,2013-06-02 20:01:00,
2013-06-02 14:06:00,82.4,39.7,29.65,ESE,111,1.0,5.0,22,0.00,SCT,SCT,0.00,1011.0,WeatherDisplay:10.37,2013-06-02 20:06:00,
2013-06-02 14:11:00,82.8,37.6,29.64,NE,36,4.6,6.9,20,0.00,SCT,SCT,0.00,1002.0,WeatherDisplay:10.37,2013-06-02 20:11:00,
2013-06-02 14:16:00,82.2,39.6,29.64,ENE,60,0.6,4.6,22,0.00,SCT,SCT,0.00,993.0,WeatherDisplay:10.37,2013-06-02 20:16:00,
2013-06-02 14:21:00,82.8,37.6,29.64,ENE,69,2.9,4.6,20,0.00,SCT,SCT,0.00,993.0,WeatherDisplay:10.37,2013-06-02 20:21:00,
2013-06-02 14:26:00,82.4,36.0,29.64,SE,128,1.7,3.4,19,0.00,SCT,SCT,0.00,986.0,WeatherDisplay:10.37,2013-06-02 20:26:00,
2013-06-02 14:31:00,82.5,34.7,29.63,SE,126,3.6,9.2,18,0.00,SCT,SCT,0.00,977.0,WeatherDisplay:10.37,2013-06-02 20:31:00,
2013-06-02 14:36:00,82.7,34.9,29.63,SE,141,0.9,5.8,18,0.00,SCT,SCT,0.00,972.0,WeatherDisplay:10.37,2013-06-02 20:36:00,
2013-06-02 14:41:00,83.2,37.9,29.62,SE,142,0.9,3.4,20,0.00,SCT,SCT,0.00,963.0,WeatherDisplay:10.37,2013-06-02 20:41:00,
2013-06-02 14:46:00,83.5,36.9,29.62,SE,142,0.1,1.1,19,0.00,SCT,SCT,0.00,956.0,WeatherDisplay:10.37,2013-06-02 20:46:00,
2013-06-02 14:51:00,83.8,37.1,29.62,SE,130,1.2,5.8,19,0.00,SCT,SCT,0.00,946.0,WeatherDisplay:10.37,2013-06-02 20:51:00,
2013-06-02 14:56:00,84.4,37.6,29.61,ESE,106,5.3,8.1,19,0.00,SCT,SCT,0.00,935.0,WeatherDisplay:10.37,2013-06-02 20:56:00,
2013-06-02 15:01:00,83.8,37.1,29.61,ESE,109,2.6,3.4,19,0.00,SCT,SCT,0.00,925.0,WeatherDisplay:10.37,2013-06-02 21:01:00,
2013-06-02 15:06:00,83.6,37.0,29.61,ESE,105,0.1,2.3,19,0.00,SCT,SCT,0.00,914.0,WeatherDisplay:10.37,2013-06-02 21:06:00,
2013-06-02 15:11:00,83.7,38.4,29.61,East,87,3.0,4.6,20,0.00,SCT,SCT,0.00,907.0,WeatherDisplay:10.37,2013-06-02 21:11:00,
2013-06-02 15:16:00,83.7,37.0,29.60,SE,137,0.8,3.4,19,0.00,SCT,SCT,0.00,895.0,WeatherDisplay:10.37,2013-06-02 21:16:00,
2013-06-02 15:21:00,84.0,37.3,29.60,SE,128,0.9,4.6,19,0.00,SCT,SCT,0.00,888.0,WeatherDisplay:10.37,2013-06-02 21:21:00,
2013-06-02 15:26:00,84.8,37.9,29.60,NE,51,5.7,9.2,19,0.00,SCT,SCT,0.00,875.0,WeatherDisplay:10.37,2013-06-02 21:26:00,
2013-06-02 15:31:00,85.2,40.8,29.59,NE,56,1.7,4.6,21,0.00,SCT,SCT,0.00,868.0,WeatherDisplay:10.37,2013-06-02 21:31:00,
2013-06-02 15:36:00,85.1,38.2,29.59,South,177,1.6,3.4,19,0.00,SCT,SCT,0.00,849.0,WeatherDisplay:10.37,2013-06-02 21:36:00,
2013-06-02 15:41:00,84.6,37.8,29.59,SSW,203,1.2,3.4,19,0.00,SCT,SCT,0.00,837.0,WeatherDisplay:10.37,2013-06-02 21:41:00,
2013-06-02 15:46:00,84.8,37.9,29.59,SSE,156,7.3,7.3,19,0.00,SCT,SCT,0.00,823.0,WeatherDisplay:10.37,2013-06-02 21:46:00,
2013-06-02 15:51:00,84.8,36.6,29.59,East,80,5.2,6.9,18,0.00,SCT,SCT,0.00,816.0,WeatherDisplay:10.37,2013-06-02 21:51:00,
2013-06-02 15:56:00,85.1,39.5,29.59,East,82,3.9,8.1,20,0.00,SCT,SCT,0.00,802.0,WeatherDisplay:10.37,2013-06-02 21:56:00,
2013-06-02 16:01:00,85.2,38.3,29.58,SE,132,2.3,4.6,19,0.00,SCT,SCT,0.00,788.0,WeatherDisplay:10.37,2013-06-02 22:01:00,
2013-06-02 16:06:00,85.2,38.3,29.59,ESE,103,3.7,4.6,19,0.00,SCT,SCT,0.00,773.0,WeatherDisplay:10.37,2013-06-02 22:06:00,
2013-06-02 16:11:00,85.3,38.4,29.59,SSE,163,1.4,3.4,19,0.00,SCT,SCT,0.00,761.0,WeatherDisplay:10.37,2013-06-02 22:11:00,
2013-06-02 16:16:00,85.4,38.4,29.59,ESE,115,1.7,4.6,19,0.00,SCT,SCT,0.00,749.0,WeatherDisplay:10.37,2013-06-02 22:16:00,
2013-06-02 16:21:00,85.4,38.4,29.59,SE,136,3.6,6.9,19,0.00,SCT,SCT,0.00,737.0,WeatherDisplay:10.37,2013-06-02 22:21:00,
2013-06-02 16:26:00,85.4,38.4,29.58,SE,126,1.3,3.4,19,0.00,SCT,SCT,0.00,724.0,WeatherDisplay:10.37,2013-06-02 22:26:00,
2013-06-02 16:31:00,85.5,38.5,29.57,NE,40,3.3,8.1,19,0.00,SCT,SCT,0.00,712.0,WeatherDisplay:10.37,2013-06-02 22:31:00,
2013-06-02 16:36:00,85.7,38.7,29.57,East,88,0.2,2.3,19,0.00,SCT,SCT,0.00,707.0,WeatherDisplay:10.37,2013-06-02 22:36:00,
2013-06-02 16:41:00,85.9,40.2,29.57,ESE,112,2.8,6.9,20,0.00,SCT,SCT,0.00,703.0,WeatherDisplay:10.37,2013-06-02 22:41:00,
2013-06-02 16:46:00,85.8,37.4,29.57,South,186,2.0,5.8,18,0.00,SCT,SCT,0.00,659.0,WeatherDisplay:10.37,2013-06-02 22:46:00,
2013-06-02 16:51:00,86.1,37.6,29.56,SW,226,1.1,3.4,18,0.00,SCT,SCT,0.00,650.0,WeatherDisplay:10.37,2013-06-02 22:51:00,
2013-06-02 16:56:00,86.4,37.9,29.56,SE,136,4.2,6.9,18,0.00,SCT,SCT,0.00,633.0,WeatherDisplay:10.37,2013-06-02 22:56:00,
2013-06-02 17:01:00,86.5,39.3,29.56,ESE,106,3.6,5.8,19,0.00,SCT,SCT,0.00,617.0,WeatherDisplay:10.37,2013-06-02 23:01:00,
2013-06-02 17:06:00,86.4,37.9,29.55,NNE,33,1.1,3.4,18,0.00,SCT,SCT,0.00,601.0,WeatherDisplay:10.37,2013-06-02 23:06:00,
2013-06-02 17:11:00,86.2,40.4,29.55,East,98,5.8,6.9,20,0.00,SCT,SCT,0.00,591.0,WeatherDisplay:10.37,2013-06-02 23:11:00,
2013-06-02 17:16:00,85.8,40.1,29.55,East,86,2.5,11.5,20,0.00,SCT,SCT,0.00,515.0,WeatherDisplay:10.37,2013-06-02 23:16:00,
2013-06-02 17:21:00,85.3,38.4,29.55,SE,144,7.1,11.5,19,0.00,SCT,SCT,0.00,69.0,WeatherDisplay:10.37,2013-06-02 23:21:00,
2013-06-02 17:26:00,84.4,38.9,29.56,SSE,158,2.9,8.1,20,0.00,SCT,SCT,0.00,63.0,WeatherDisplay:10.37,2013-06-02 23:26:00,
2013-06-02 17:31:00,83.9,38.5,29.56,SSE,159,0.8,3.4,20,0.00,SCT,SCT,0.00,67.0,WeatherDisplay:10.37,2013-06-02 23:31:00,
2013-06-02 17:36:00,83.6,38.3,29.56,SE,140,3.6,5.8,20,0.00,SCT,SCT,0.00,146.0,WeatherDisplay:10.37,2013-06-02 23:36:00,
2013-06-02 17:41:00,83.5,38.2,29.56,SE,132,0.4,2.3,20,0.00,SCT,SCT,0.00,526.0,WeatherDisplay:10.37,2013-06-02 23:41:00,
2013-06-02 17:46:00,83.9,39.8,29.56,SSE,167,3.0,3.4,21,0.00,SCT,SCT,0.00,97.0,WeatherDisplay:10.37,2013-06-02 23:46:00,
2013-06-02 17:51:00,83.8,39.7,29.56,SE,136,3.0,11.5,21,0.00,SCT,SCT,0.00,72.0,WeatherDisplay:10.37,2013-06-02 23:51:00,
2013-06-02 17:56:00,83.1,39.1,29.57,ESE,107,1.9,11.5,21,0.00,SCT,SCT,0.00,63.0,WeatherDisplay:10.37,2013-06-02 23:56:00,
2013-06-02 18:01:00,82.2,38.4,29.56,SE,138,8.3,11.5,21,0.00,SCT,SCT,0.00,63.0,WeatherDisplay:10.37,2013-06-03 00:01:00,
2013-06-02 18:06:00,81.6,37.9,29.56,South,170,8.0,10.3,21,0.00,SCT,SCT,0.00,63.0,WeatherDisplay:10.37,2013-06-03 00:06:00,
2013-06-02 18:11:00,81.2,37.5,29.56,SE,137,4.1,8.1,21,0.00,SCT,SCT,0.00,72.0,WeatherDisplay:10.37,2013-06-03 00:11:00,
2013-06-02 18:16:00,81.0,37.4,29.56,ESE,114,2.8,6.9,21,0.00,SCT,SCT,0.00,86.0,WeatherDisplay:10.37,2013-06-03 00:16:00,
2013-06-02 18:21:00,80.8,37.2,29.56,SE,128,1.7,6.0,21,0.00,SCT,SCT,0.00,91.0,WeatherDisplay:10.37,2013-06-03 00:21:00,
2013-06-02 18:26:00,80.7,38.3,29.56,SE,146,3.6,4.0,22,0.00,SCT,SCT,0.00,98.0,WeatherDisplay:10.37,2013-06-03 00:26:00,
2013-06-02 18:31:00,80.7,38.3,29.56,SSE,150,2.1,5.8,22,0.00,SCT,SCT,0.00,262.0,WeatherDisplay:10.37,2013-06-03 00:31:00,
2013-06-02 18:36:00,80.6,38.2,29.56,SE,144,5.4,10.3,22,0.00,SCT,SCT,0.00,114.0,WeatherDisplay:10.37,2013-06-03 00:36:00,
2013-06-02 18:41:00,80.6,37.0,29.56,ESE,119,8.0,8.0,21,0.00,SCT,SCT,0.00,135.0,WeatherDisplay:10.37,2013-06-03 00:41:00,
2013-06-02 18:46:00,80.7,38.3,29.56,SE,146,5.5,13.8,22,0.00,SCT,SCT,0.00,304.0,WeatherDisplay:10.37,2013-06-03 00:46:00,
2013-06-02 18:51:00,80.9,38.5,29.56,SE,140,3.4,6.9,22,0.00,SCT,SCT,0.00,279.0,WeatherDisplay:10.37,2013-06-03 00:51:00,
2013-06-02 18:56:00,81.1,37.5,29.56,East,92,6.0,11.5,21,0.00,SCT,SCT,0.00,195.0,WeatherDisplay:10.37,2013-06-03 00:56:00,
2013-06-02 19:01:00,81.1,37.5,29.56,South,170,7.3,12.6,21,0.00,SCT,SCT,0.00,70.0,WeatherDisplay:10.37,2013-06-03 01:01:00,
2013-06-02 19:06:00,80.9,38.5,29.52,SSE,151,6.9,14.0,22,0.00,SCT,SCT,0.00,90.0,WeatherDisplay:10.37,2013-06-03 01:06:00,
2013-06-02 19:11:00,80.6,38.2,29.52,SSE,155,5.2,8.1,22,0.00,SCT,SCT,0.00,33.0,WeatherDisplay:10.37,2013-06-03 01:11:00,
2013-06-02 19:16:00,80.2,37.9,29.53,SE,130,2.8,4.6,22,0.00,SCT,SCT,0.00,33.0,WeatherDisplay:10.37,2013-06-03 01:16:00,
2013-06-02 19:21:00,79.9,38.8,29.53,SSE,167,6.3,10.3,23,0.00,SCT,SCT,0.00,76.0,WeatherDisplay:10.37,2013-06-03 01:21:00,
2013-06-02 19:26:00,79.6,38.5,29.54,SE,129,5.8,9.2,23,0.00,SCT,SCT,0.00,33.0,WeatherDisplay:10.37,2013-06-03 01:26:00,
2013-06-02 19:31:00,79.3,38.3,29.54,SSE,162,3.9,8.1,23,0.00,SCT,SCT,0.00,33.0,WeatherDisplay:10.37,2013-06-03 01:31:00,
2013-06-02 19:36:00,79.1,38.1,29.54,SSE,148,3.8,5.0,23,0.00,SCT,SCT,0.00,47.0,WeatherDisplay:10.37,2013-06-03 01:36:00,
2013-06-02 19:41:00,78.8,37.9,29.54,SSE,150,4.0,10.3,23,0.00,SCT,SCT,0.00,33.0,WeatherDisplay:10.37,2013-06-03 01:41:00,
2013-06-02 19:46:00,78.7,37.8,29.54,SSE,148,2.4,4.6,23,0.00,SCT,SCT,0.00,37.0,WeatherDisplay:10.37,2013-06-03 01:46:00,
2013-06-02 19:51:00,78.5,37.6,29.54,SSE,156,1.4,6.9,23,0.00,SCT,SCT,0.00,35.0,WeatherDisplay:10.37,2013-06-03 01:51:00,
2013-06-02 19:56:00,78.3,38.5,29.56,SSE,155,1.0,5.8,24,0.00,SCT,SCT,0.00,28.0,WeatherDisplay:10.37,2013-06-03 01:56:00,
2013-06-02 20:01:00,78.2,38.4,29.56,SSE,155,2.0,3.0,24,0.00,SCT,SCT,0.00,21.0,WeatherDisplay:10.37,2013-06-03 02:01:00,
2013-06-02 20:06:00,78.0,39.3,29.51,SSE,155,0.6,0.0,25,0.00,SCT,SCT,0.00,19.0,WeatherDisplay:10.37,2013-06-03 02:06:00,
2013-06-02 20:11:00,77.7,38.0,29.51,SSE,154,1.1,3.4,24,0.00,SCT,SCT,0.00,16.0,WeatherDisplay:10.37,2013-06-03 02:11:00,
2013-06-02 20:16:00,77.4,38.8,29.51,SSE,153,1.6,3.4,25,0.00,SCT,SCT,0.00,12.0,WeatherDisplay:10.37,2013-06-03 02:16:00,
2013-06-02 20:21:00,77.1,38.6,29.52,SSE,155,2.0,4.0,25,0.00,SCT,SCT,0.00,9.0,WeatherDisplay:10.37,2013-06-03 02:21:00,
2013-06-02 20:26:00,76.9,39.4,29.52,SSE,155,0.0,3.4,26,0.00,SCT,SCT,0.00,5.0,WeatherDisplay:10.37,2013-06-03 02:26:00,
2013-06-02 20:31:00,76.5,39.0,29.52,SSE,155,2.5,3.4,26,0.00,SCT,SCT,0.00,0.0,WeatherDisplay:10.37,2013-06-03 02:31:00,
2013-06-02 20:36:00,76.1,38.7,29.52,SE,134,1.3,3.4,26,0.00,SCT,SCT,0.00,0.0,WeatherDisplay:10.37,2013-06-03 02:36:00,
2013-06-02 20:41:00,75.7,39.3,29.52,SE,133,3.0,4.6,27,0.00,SCT,SCT,0.00,0.0,WeatherDisplay:10.37,2013-06-03 02:41:00,
2013-06-02 20:46:00,75.3,39.0,29.53,SE,138,1.1,4.6,27,0.00,SCT,SCT,0.00,0.0,WeatherDisplay:10.37,2013-06-03 02:46:00,
2013-06-02 20:51:00,75.0,38.7,29.53,South,173,3.7,5.0,27,0.00,SCT,SCT,0.00,0.0,WeatherDisplay:10.37,2013-06-03 02:51:00,
2013-06-02 20:56:00,74.7,37.5,29.53,ESE,123,2.6,5.8,26,0.00,SCT,SCT,0.00,0.0,WeatherDisplay:10.37,2013-06-03 02:56:00,
2013-06-02 21:01:00,74.4,37.3,29.53,SE,125,4.9,7.0,26,0.00,SCT,SCT,0.00,0.0,WeatherDisplay:10.37,2013-06-03 03:01:00,
2013-06-02 21:06:00,74.3,36.2,29.52,ESE,107,2.6,5.8,25,0.00,SCT,SCT,0.00,0.0,WeatherDisplay:10.37,2013-06-03 03:06:00,
2013-06-02 21:11:00,74.3,35.2,29.52,SE,130,5.8,5.8,24,0.00,SCT,SCT,0.00,0.0,WeatherDisplay:10.37,2013-06-03 03:11:00,
2013-06-02 21:16:00,74.2,35.1,29.52,SE,142,4.8,8.1,24,0.00,SCT,SCT,0.00,0.0,WeatherDisplay:10.37,2013-06-03 03:16:00,
2013-06-02 21:21:00,74.1,36.0,29.52,SE,134,1.5,3.4,25,0.00,SCT,SCT,0.00,0.0,WeatherDisplay:10.37,2013-06-03 03:21:00,
2013-06-02 21:26:00,74.0,35.9,29.52,SE,136,1.5,4.6,25,0.00,SCT,SCT,0.00,0.0,WeatherDisplay:10.37,2013-06-03 03:26:00,
2013-06-02 21:31:00,73.7,35.7,29.52,SE,139,2.2,3.4,25,0.00,SCT,SCT,0.00,0.0,WeatherDisplay:10.37,2013-06-03 03:31:00,
2013-06-02 21:37:00,73.4,36.4,29.52,SE,135,1.3,3.4,26,0.00,SCT,SCT,0.00,0.0,WeatherDisplay:10.37,2013-06-03 03:37:00,
2013-06-02 21:42:00,73.1,36.2,29.52,SE,144,3.4,4.6,26,0.00,SCT,SCT,0.00,0.0,WeatherDisplay:10.37,2013-06-03 03:42:00,
2013-06-02 21:47:00,72.8,35.9,29.52,SE,144,2.9,8.1,26,0.00,SCT,SCT,0.00,0.0,WeatherDisplay:10.37,2013-06-03 03:47:00,
2013-06-02 21:52:00,72.5,36.6,29.51,SE,142,1.5,2.3,27,0.00,SCT,SCT,0.00,0.0,WeatherDisplay:10.37,2013-06-03 03:52:00,
2013-06-02 21:57:00,72.1,36.3,29.53,SE,144,1.9,3.4,27,0.00,SCT,SCT,0.00,0.0,WeatherDisplay:10.37,2013-06-03 03:57:00,
2013-06-02 22:01:00,71.9,35.1,29.53,SE,141,3.2,5.8,26,0.00,SCT,SCT,0.00,0.0,WeatherDisplay:10.37,2013-06-03 04:01:00,
2013-06-02 22:02:00,71.8,35.0,29.53,SE,138,2.0,5.0,26,0.00,SCT,SCT,0.00,0.0,WeatherDisplay:10.37,2013-06-03 04:02:00,
2013-06-02 22:07:00,71.6,35.8,29.50,SE,133,2.0,4.6,27,0.00,SCT,SCT,0.00,0.0,WeatherDisplay:10.37,2013-06-03 04:07:00,
2013-06-02 22:12:00,71.3,35.6,29.50,SSE,152,0.6,4.0,27,0.00,SCT,SCT,0.00,0.0,WeatherDisplay:10.37,2013-06-03 04:12:00,
2013-06-02 22:17:00,71.0,35.3,29.50,SE,126,3.7,6.9,27,0.00,SCT,SCT,0.00,0.0,WeatherDisplay:10.37,2013-06-03 04:17:00,
2013-06-02 22:22:00,70.7,35.1,29.50,SE,125,3.4,8.1,27,0.00,SCT,SCT,0.00,0.0,WeatherDisplay:10.37,2013-06-03 04:22:00,
2013-06-02 22:27:00,70.4,35.7,29.51,SE,142,3.9,6.9,28,0.00,SCT,SCT,0.00,0.0,WeatherDisplay:10.37,2013-06-03 04:27:00,
2013-06-02 22:32:00,70.1,35.5,29.51,SE,138,0.7,2.3,28,0.00,SCT,SCT,0.00,0.0,WeatherDisplay:10.37,2013-06-03 04:32:00,
2013-06-02 22:37:00,69.8,35.2,29.51,South,178,2.0,3.4,28,0.00,SCT,SCT,0.00,0.0,WeatherDisplay:10.37,2013-06-03 04:37:00,
2013-06-02 22:42:00,69.5,35.8,29.51,South,178,0.4,2.3,29,0.00,SCT,SCT,0.00,0.0,WeatherDisplay:10.37,2013-06-03 04:42:00,
2013-06-02 22:47:00,69.2,35.6,29.51,South,178,0.2,2.3,29,0.00,SCT,SCT,0.00,0.0,WeatherDisplay:10.37,2013-06-03 04:47:00,
2013-06-02 22:52:00,68.9,35.3,29.51,South,178,0.0,0.0,29,0.00,SCT,SCT,0.00,0.0,WeatherDisplay:10.37,2013-06-03 04:52:00,
2013-06-02 22:57:00,68.7,36.8,29.51,SSW,195,0.4,4.0,31,0.00,SCT,SCT,0.00,0.0,WeatherDisplay:10.37,2013-06-03 04:57:00,
2013-06-02 23:02:00,68.4,37.4,29.51,SSW,196,1.4,3.4,32,0.00,CLR,CLR,0.00,0.0,WeatherDisplay:10.37,2013-06-03 05:02:00,
2013-06-02 23:07:00,68.0,37.8,29.49,South,191,1.5,3.4,33,0.00,CLR,CLR,0.00,0.0,WeatherDisplay:10.37,2013-06-03 05:07:00,
2013-06-02 23:12:00,67.8,38.4,29.49,SSW,198,0.5,2.3,34,0.00,CLR,CLR,0.00,0.0,WeatherDisplay:10.37,2013-06-03 05:12:00,
2013-06-02 23:17:00,67.6,38.2,29.49,SSW,199,0.0,1.1,34,0.00,CLR,CLR,0.00,0.0,WeatherDisplay:10.37,2013-06-03 05:17:00,
2013-06-02 23:22:00,67.3,38.7,29.50,SSW,199,0.0,1.1,35,0.00,CLR,CLR,0.00,0.0,WeatherDisplay:10.37,2013-06-03 05:22:00,
2013-06-02 23:27:00,66.9,39.1,29.49,SSW,200,1.8,3.4,36,0.00,CLR,CLR,0.00,0.0,WeatherDisplay:10.37,2013-06-03 05:27:00,
2013-06-02 23:32:00,66.5,38.7,29.49,SSW,200,0.0,1.1,36,0.00,CLR,CLR,0.00,0.0,WeatherDisplay:10.37,2013-06-03 05:32:00,
2013-06-02 23:37:00,66.2,39.1,29.49,SSW,205,1.5,3.4,37,0.00,CLR,CLR,0.00,0.0,WeatherDisplay:10.37,2013-06-03 05:37:00,
2013-06-02 23:42:00,65.9,38.9,29.49,SSW,207,0.0,0.0,37,0.00,CLR,CLR,0.00,0.0,WeatherDisplay:10.37,2013-06-03 05:42:00,
2013-06-02 23:47:00,65.6,39.3,29.49,SSW,207,0.0,0.0,38,0.00,CLR,CLR,0.00,0.0,WeatherDisplay:10.37,2013-06-03 05:47:00,
2013-06-02 23:52:00,65.4,39.1,29.50,South,191,0.8,3.4,38,0.00,CLR,CLR,0.00,0.0,WeatherDisplay:10.37,2013-06-03 05:52:00,
2013-06-02 23:57:00,65.2,38.9,29.50,South,191,0.0,0.0,38,0.00,CLR,CLR,0.00,0.0,WeatherDisplay:10.37,2013-06-03 05:57:00,